Time;durP1;ratioP1;P1;durP2;ratioP2;P2;SDS_P1;SDS_P2;PMS_P1;PMS_P2;Temp;Humidity;BMP_temperature;BMP_pressure;BME280_temperature;BME280_humidity;BME280_pressure;Samples;Min_cycle;Max_cycle;Signal;HPM_P1;HPM_P2
2022/01/22 00:00:24;;;;;;;5.77;5.20;;;0.80;99.90;;;;;;7421489;19;20309;-82
2022/01/22 00:02:50;;;;;;;6.03;5.43;;;0.80;99.90;;;;;;7415350;19;20336;-82
2022/01/22 00:05:16;;;;;;;6.20;5.50;;;0.80;99.90;;;;;;7415667;19;20409;-81
2022/01/22 00:07:42;;;;;;;6.25;5.65;;;0.80;99.90;;;;;;7413697;19;20340;-82
2022/01/22 00:10:13;;;;;;;5.80;5.20;;;0.90;99.90;;;;;;7409328;19;20333;-80
2022/01/22 00:15:07;;;;;;;5.60;5.13;;;1.10;99.90;;;;;;7396887;19;20332;-80
2022/01/22 00:17:33;;;;;;;6.43;5.82;;;0.90;99.90;;;;;;7398510;19;20325;-82
2022/01/22 00:19:59;;;;;;;5.60;4.97;;;0.90;99.90;;;;;;7400100;19;20304;-81
2022/01/22 00:22:28;;;;;;;5.47;4.97;;;1.00;99.90;;;;;;7395383;19;20461;-80
2022/01/22 00:24:58;;;;;;;5.37;4.87;;;1.00;99.90;;;;;;7393018;19;20347;-81
2022/01/22 00:27:32;;;;;;;4.72;4.30;;;1.00;99.90;;;;;;7392608;19;20316;-78
2022/01/22 00:29:58;;;;;;;5.72;5.05;;;1.10;99.90;;;;;;7391629;19;20311;-82
2022/01/22 00:32:24;;;;;;;5.30;4.80;;;1.00;99.90;;;;;;7396072;19;20299;-80
2022/01/22 00:34:49;;;;;;;5.53;4.82;;;1.10;99.90;;;;;;7372328;19;20679;-78
2022/01/22 00:37:15;;;;;;;4.97;4.57;;;1.10;99.90;;;;;;7404863;19;20292;-82
2022/01/22 00:39:41;;;;;;;4.67;4.23;;;1.10;99.90;;;;;;7392628;19;20319;-80
2022/01/22 00:42:12;;;;;;;5.35;4.30;;;1.30;99.90;;;;;;7391753;19;20346;-80
2022/01/22 00:44:37;;;;;;;4.68;4.07;;;1.20;99.90;;;;;;7392202;19;20340;-79
2022/01/22 00:47:03;;;;;;;4.50;4.10;;;1.20;99.90;;;;;;7391733;19;20402;-79
2022/01/22 00:49:30;;;;;;;4.13;3.50;;;1.20;99.90;;;;;;7392159;19;20301;-82
2022/01/22 00:51:55;;;;;;;4.75;4.25;;;1.20;99.90;;;;;;7390594;19;20328;-79
2022/01/22 00:54:21;;;;;;;4.30;3.90;;;1.20;99.90;;;;;;7387571;19;20340;-79
2022/01/22 00:56:47;;;;;;;4.47;4.07;;;1.20;99.90;;;;;;7392124;19;20307;-79
2022/01/22 00:59:13;;;;;;;4.32;3.92;;;1.40;99.90;;;;;;7389863;19;20312;-80
2022/01/22 01:01:38;;;;;;;4.43;4.03;;;1.30;99.90;;;;;;7264873;19;2004859;-79
2022/01/22 01:04:04;;;;;;;3.83;3.42;;;1.40;99.90;;;;;;7384092;19;20738;-80
2022/01/22 01:06:30;;;;;;;3.83;3.50;;;1.30;99.90;;;;;;7369625;19;20274;-81
2022/01/22 01:08:56;;;;;;;3.97;3.60;;;1.30;99.90;;;;;;7391463;19;20690;-79
2022/01/22 01:11:26;;;;;;;4.45;3.58;;;1.40;99.90;;;;;;7396726;19;20300;-87
2022/01/22 01:13:57;;;;;;;3.90;3.58;;;1.50;99.90;;;;;;7364952;19;20325;-80
2022/01/22 01:35:21;;;;;;;3.33;3.03;;;1.50;99.90;;;;;;7366862;19;20347;-80
2022/01/22 01:37:48;;;;;;;2.63;2.42;;;1.50;99.90;;;;;;7388430;19;20325;-80
2022/01/22 01:40:18;;;;;;;2.58;2.38;;;1.60;99.90;;;;;;7387922;19;20345;-80
2022/01/22 01:42:53;;;;;;;2.95;2.75;;;1.50;99.90;;;;;;7389149;19;20884;-80
2022/01/22 01:45:18;;;;;;;2.47;2.35;;;1.60;99.90;;;;;;7398219;19;20380;-80
2022/01/22 01:47:53;;;;;;;2.72;2.53;;;1.60;99.90;;;;;;7392929;19;20317;-79
2022/01/22 01:50:19;;;;;;;3.30;2.75;;;1.60;99.90;;;;;;7388136;19;20317;-80
2022/01/22 01:53:04;;;;;;;2.50;2.30;;;1.60;99.90;;;;;;7389224;19;20368;-82
2022/01/22 01:55:46;;;;;;;2.20;2.10;;;1.70;99.90;;;;;;7286922;19;2005138;-80
2022/01/22 01:58:20;;;;;;;2.60;2.40;;;1.70;99.90;;;;;;7367021;19;21239;-82
2022/01/22 02:00:47;;;;;;;2.43;2.23;;;1.80;99.90;;;;;;7386914;19;20309;-80
2022/01/22 02:03:14;;;;;;;2.10;2.00;;;1.70;99.90;;;;;;7387394;19;20324;-79
2022/01/22 02:05:46;;;;;;;2.58;2.38;;;1.80;99.90;;;;;;7383400;19;20331;-79
2022/01/22 02:08:13;;;;;;;1.90;1.80;;;1.80;99.90;;;;;;7389267;19;20345;-80
2022/01/22 02:10:54;;;;;;;2.00;1.90;;;1.80;99.90;;;;;;7388431;19;20317;-81
2022/01/22 02:25:31;;;;;;;1.83;1.70;;;2.00;99.90;;;;;;7293977;19;2004417;-80
2022/01/22 02:28:00;;;;;;;1.80;1.70;;;2.00;99.90;;;;;;7405388;19;20931;-79
2022/01/22 02:30:35;;;;;;;1.75;1.65;;;2.00;99.90;;;;;;7396377;19;20382;-80
2022/01/22 02:33:30;;;;;;;1.80;1.70;;;2.00;99.90;;;;;;7286786;19;2004235;-82
2022/01/22 02:36:06;;;;;;;1.80;1.70;;;2.00;99.90;;;;;;7291658;19;2004402;-80
2022/01/22 02:38:44;;;;;;;2.33;1.90;;;2.00;99.90;;;;;;7287136;19;2004372;-78
2022/01/22 02:41:16;;;;;;;1.65;1.42;;;2.10;99.90;;;;;;7294079;19;2004391;-80
2022/01/22 02:43:41;;;;;;;1.83;1.73;;;2.10;99.90;;;;;;7395876;19;20747;-81
2022/01/22 02:46:08;;;;;;;1.80;1.70;;;2.10;99.90;;;;;;7377694;19;20353;-79
2022/01/22 02:48:33;;;;;;;1.60;1.50;;;2.10;99.90;;;;;;7394979;19;20400;-81
2022/01/22 02:50:59;;;;;;;1.70;1.60;;;2.10;99.90;;;;;;7397514;19;20316;-80
2022/01/22 02:53:25;;;;;;;1.35;1.27;;;2.00;99.90;;;;;;7395063;19;20400;-80
2022/01/22 02:55:51;;;;;;;1.80;1.45;;;2.00;99.90;;;;;;7397147;19;20293;-79
2022/01/22 02:58:17;;;;;;;1.63;1.52;;;2.00;99.90;;;;;;7390998;19;20332;-81
2022/01/22 03:00:43;;;;;;;1.50;1.40;;;2.00;99.90;;;;;;7404335;19;20355;-80
2022/01/22 03:03:09;;;;;;;1.25;1.17;;;2.10;99.90;;;;;;7404986;19;20313;-80
2022/01/22 03:05:35;;;;;;;1.20;1.20;;;2.00;99.90;;;;;;7402457;19;20409;-79
2022/01/22 03:08:08;;;;;;;1.30;1.30;;;2.00;99.90;;;;;;7396160;19;20347;-78
2022/01/22 03:10:33;;;;;;;1.80;1.70;;;1.90;99.90;;;;;;7391028;19;20351;-80
2022/01/22 03:18:03;;;;;;;1.67;1.57;;;2.00;99.90;;;;;;7392364;19;20440;-81
2022/01/22 03:21:01;;;;;;;1.80;1.70;;;2.00;99.90;;;;;;7284268;19;2004596;-79
2022/01/22 03:29:08;;;;;;;2.08;1.70;;;2.10;99.90;;;;;;7290178;19;2005582;-79
2022/01/22 03:31:34;;;;;;;1.70;1.60;;;2.00;99.90;;;;;;7301982;19;2004693;-78
2022/01/22 03:34:00;;;;;;;1.55;1.45;;;2.00;99.90;;;;;;7399453;19;20316;-80
2022/01/22 03:36:30;;;;;;;1.63;1.52;;;2.00;99.90;;;;;;7392941;19;20340;-83
2022/01/22 03:38:56;;;;;;;1.85;1.70;;;2.00;99.90;;;;;;7350271;19;20328;-78
2022/01/22 03:41:26;;;;;;;1.40;1.30;;;2.00;99.90;;;;;;7394013;19;20337;-81
2022/01/22 03:43:54;;;;;;;1.55;1.45;;;2.10;99.90;;;;;;7393272;19;20320;-83
2022/01/22 03:46:20;;;;;;;1.45;1.35;;;2.10;99.90;;;;;;7389286;19;20856;-80
2022/01/22 03:48:48;;;;;;;1.50;1.40;;;2.10;99.90;;;;;;7392032;19;20323;-82
2022/01/22 03:51:14;;;;;;;1.80;1.50;;;2.00;99.90;;;;;;7399946;19;20333;-79
2022/01/22 03:53:39;;;;;;;1.42;1.33;;;2.00;99.90;;;;;;7400711;19;20339;-78
2022/01/22 03:56:07;;;;;;;4.47;4.07;;;1.90;99.90;;;;;;7395151;19;20324;-79
2022/01/22 03:59:02;;;;;;;1.20;1.20;;;1.90;99.90;;;;;;7283805;19;2004417;-79
2022/01/22 04:02:34;;;;;;;1.42;1.33;;;2.00;99.90;;;;;;7388215;19;20340;-79
2022/01/22 04:04:55;;;;;;;1.40;1.30;;;1.90;99.90;;;;;;7297299;19;2009205;-79
2022/01/22 04:10:08;;;;;;;1.20;1.20;;;1.90;99.90;;;;;;7369779;19;20361;-80
2022/01/22 04:12:50;;;;;;;1.30;1.20;;;1.80;99.90;;;;;;7388697;19;20353;-80
2022/01/22 04:15:20;;;;;;;1.35;1.25;;;1.80;99.90;;;;;;7389079;19;20333;-79
2022/01/22 04:25:49;;;;;;;1.20;1.20;;;1.90;99.90;;;;;;7294680;19;2004676;-80
2022/01/22 04:28:29;;;;;;;1.00;1.00;;;1.90;99.90;;;;;;7391127;19;20356;-80
2022/01/22 04:30:55;;;;;;;1.38;1.20;;;1.80;99.90;;;;;;7389400;19;20842;-83
2022/01/22 04:33:21;;;;;;;1.25;1.23;;;1.80;99.90;;;;;;7390320;19;20355;-79
2022/01/22 04:35:47;;;;;;;1.67;1.40;;;1.80;99.90;;;;;;7398588;19;20657;-80
2022/01/22 04:38:15;;;;;;;1.25;1.15;;;1.80;99.90;;;;;;7393642;19;20312;-80
2022/01/22 04:40:42;;;;;;;1.42;1.33;;;1.80;99.90;;;;;;7394055;19;20340;-81
2022/01/22 04:43:09;;;;;;;1.33;1.30;;;1.80;99.90;;;;;;7393994;19;20337;-79
2022/01/22 04:55:55;;;;;;;1.20;1.10;;;1.70;99.90;;;;;;7392767;19;20362;-79
2022/01/22 04:58:21;;;;;;;1.60;1.50;;;1.60;99.90;;;;;;7385339;19;20906;-79
2022/01/22 05:00:48;;;;;;;1.63;1.52;;;1.70;99.90;;;;;;7386222;19;20364;-81
2022/01/22 05:03:37;;;;;;;1.55;1.45;;;1.70;99.90;;;;;;7288820;19;2005663;-80
2022/01/22 05:06:30;;;;;;;1.60;1.50;;;1.70;99.90;;;;;;7395459;19;20670;-80
2022/01/22 05:09:14;;;;;;;1.70;1.60;;;1.80;99.90;;;;;;7290440;19;2004347;-82
2022/01/22 05:12:07;;;;;;;1.60;1.50;;;1.70;99.90;;;;;;7284396;19;2004589;-79
2022/01/22 05:14:33;;;;;;;1.75;1.65;;;1.60;99.90;;;;;;7390252;19;20414;-80
2022/01/22 05:17:01;;;;;;;2.22;1.67;;;1.60;99.90;;;;;;7387989;19;20359;-81
2022/01/22 05:22:30;;;;;;;1.08;1.08;;;1.60;99.90;;;;;;7388744;19;20890;-79
2022/01/22 05:24:57;;;;;;;1.88;1.30;;;1.50;99.90;;;;;;7284893;19;2004345;-80
2022/01/22 05:38:51;;;;;;;1.50;1.40;;;1.50;99.90;;;;;;7401969;19;20317;-80
2022/01/22 05:41:17;;;;;;;3.17;1.50;;;1.40;99.90;;;;;;7393654;19;20317;-82
2022/01/22 05:43:43;;;;;;;1.35;1.25;;;1.60;99.90;;;;;;7395727;19;20955;-80
2022/01/22 05:46:09;;;;;;;1.80;1.70;;;1.40;99.90;;;;;;7389634;19;20316;-82
2022/01/22 05:48:35;;;;;;;1.80;1.60;;;1.50;99.90;;;;;;7396305;19;20431;-80
2022/01/22 05:51:07;;;;;;;2.67;1.63;;;1.50;99.90;;;;;;7391447;19;20715;-83
2022/01/22 06:01:48;;;;;;;1.50;1.40;;;1.60;99.90;;;;;;7294173;19;2007537;-80
2022/01/22 06:04:19;;;;;;;1.80;1.70;;;1.60;99.90;;;;;;7396552;19;20415;-81
2022/01/22 06:06:48;;;;;;;1.80;1.70;;;1.60;99.90;;;;;;7392756;19;20919;-80
2022/01/22 06:09:14;;;;;;;1.75;1.65;;;1.70;99.90;;;;;;7359331;19;20348;-79
2022/01/22 06:12:14;;;;;;;2.45;1.95;;;1.80;99.90;;;;;;7401178;19;20308;-79
2022/01/22 06:14:46;;;;;;;2.30;2.10;;;1.50;99.90;;;;;;7203414;19;2004466;-79
2022/01/22 06:17:12;;;;;;;1.77;1.67;;;1.60;99.90;;;;;;7398884;19;20313;-81
2022/01/22 06:19:45;;;;;;;2.13;1.93;;;1.60;99.90;;;;;;7402088;19;20343;-80
2022/01/22 06:22:11;;;;;;;2.53;1.90;;;1.60;99.90;;;;;;7395876;19;20297;-80
2022/01/22 06:24:37;;;;;;;1.60;1.50;;;1.60;99.90;;;;;;7397400;19;20345;-80
2022/01/22 06:27:07;;;;;;;2.10;1.40;;;1.60;99.90;;;;;;7396627;19;20752;-81
2022/01/22 06:29:33;;;;;;;2.00;1.85;;;1.70;99.90;;;;;;7393584;19;20314;-80
2022/01/22 06:31:59;;;;;;;1.98;1.83;;;1.60;99.90;;;;;;7393449;19;20313;-79
2022/01/22 06:34:27;;;;;;;1.83;1.73;;;1.60;99.90;;;;;;7391142;19;20324;-79
2022/01/22 06:36:52;;;;;;;1.90;1.80;;;1.60;99.90;;;;;;7393614;19;20296;-79
2022/01/22 06:39:21;;;;;;;2.05;1.83;;;1.60;99.90;;;;;;7394649;19;20378;-79
2022/01/22 06:42:09;;;;;;;1.50;1.40;;;1.60;99.90;;;;;;7300589;19;2004442;-81
2022/01/22 06:45:04;;;;;;;1.50;1.40;;;1.50;99.90;;;;;;7291140;19;2004616;-79
2022/01/22 06:47:39;;;;;;;1.80;1.60;;;1.50;99.90;;;;;;7373460;19;20370;-79
2022/01/22 06:50:14;;;;;;;1.80;1.67;;;1.50;99.90;;;;;;7393854;19;20340;-80
2022/01/22 06:52:43;;;;;;;1.75;1.65;;;1.50;99.90;;;;;;7391983;19;20341;-79
2022/01/22 06:55:19;;;;;;;1.70;1.60;;;1.40;99.90;;;;;;7393778;19;20332;-79
2022/01/22 06:57:50;;;;;;;1.80;1.70;;;1.40;99.90;;;;;;7348707;19;20329;-80
2022/01/22 07:00:26;;;;;;;1.73;1.63;;;1.40;99.90;;;;;;7284560;19;2004422;-81
2022/01/22 07:03:06;;;;;;;2.55;1.90;;;1.40;99.90;;;;;;7289915;19;2004526;-80
2022/01/22 07:05:33;;;;;;;1.83;1.73;;;1.40;99.90;;;;;;7394197;19;20332;-81
2022/01/22 07:08:14;;;;;;;1.70;1.60;;;1.40;99.90;;;;;;7394751;19;20322;-79
2022/01/22 07:10:42;;;;;;;2.40;1.73;;;1.20;99.90;;;;;;7393363;19;20430;-80
2022/01/22 07:13:09;;;;;;;2.20;1.80;;;1.20;99.90;;;;;;7391125;19;20301;-80
2022/01/22 07:15:35;;;;;;;2.60;1.80;;;1.20;99.90;;;;;;7390950;19;20345;-80
2022/01/22 07:18:12;;;;;;;2.05;1.90;;;1.10;99.90;;;;;;7390743;19;20325;-79
2022/01/22 07:20:41;;;;;;;1.75;1.60;;;1.30;99.90;;;;;;7378766;19;20323;-83
2022/01/22 07:25:50;;;;;;;7.28;2.22;;;1.20;99.90;;;;;;7372153;19;20334;-80
2022/01/22 07:28:34;;;;;;;2.42;1.92;;;1.00;99.90;;;;;;7387370;19;20860;-81
2022/01/22 07:31:03;;;;;;;2.28;2.01;;;0.90;99.90;;;;;;6262171;19;10001782;-83
2022/01/22 07:33:32;;;;;;;1.80;1.70;;;0.90;99.90;;;;;;7386735;19;21148;-79
2022/01/22 07:35:59;;;;;;;1.80;1.70;;;0.90;99.90;;;;;;7391939;19;20852;-80
2022/01/22 07:38:25;;;;;;;1.80;1.70;;;0.80;99.90;;;;;;7399323;19;20446;-82
2022/01/22 07:40:51;;;;;;;1.80;1.70;;;0.80;99.90;;;;;;7392982;19;20312;-80
2022/01/22 07:43:26;;;;;;;1.73;1.63;;;0.70;99.90;;;;;;7390146;19;20301;-80
2022/01/22 07:46:11;;;;;;;1.50;1.40;;;0.70;99.90;;;;;;7296798;19;2004354;-80
2022/01/22 07:48:45;;;;;;;1.77;1.40;;;0.70;99.90;;;;;;7288759;19;2004314;-79
2022/01/22 07:51:11;;;;;;;1.50;1.40;;;0.60;99.90;;;;;;7389050;19;20324;-81
2022/01/22 07:53:37;;;;;;;1.70;1.60;;;0.60;99.90;;;;;;7390660;19;20536;-79
2022/01/22 07:56:14;;;;;;;2.35;1.70;;;0.60;99.90;;;;;;7399324;19;20339;-79
2022/01/22 07:58:40;;;;;;;1.25;1.25;;;0.60;99.90;;;;;;7395138;19;20325;-79
2022/01/22 08:01:06;;;;;;;2.00;1.70;;;0.60;99.90;;;;;;7393160;19;20321;-79
2022/01/22 08:03:51;;;;;;;1.80;1.70;;;0.50;99.90;;;;;;7390406;19;20313;-79
2022/01/22 08:06:35;;;;;;;1.88;1.77;;;0.50;99.90;;;;;;7287308;19;2004442;-79
2022/01/22 08:09:21;;;;;;;1.60;1.50;;;0.50;99.90;;;;;;7282290;19;2004219;-81
2022/01/22 08:12:14;;;;;;;2.00;1.80;;;0.50;99.90;;;;;;7390818;19;20376;-80
2022/01/22 08:14:40;;;;;;;1.42;1.33;;;0.50;99.90;;;;;;7388104;19;20312;-78
2022/01/22 08:17:06;;;;;;;2.70;1.70;;;0.50;99.90;;;;;;7394125;19;20341;-80
2022/01/22 08:19:34;;;;;;;1.70;1.60;;;0.60;99.90;;;;;;7388849;19;20381;-79
2022/01/22 08:22:02;;;;;;;1.83;1.73;;;0.60;99.90;;;;;;7387802;19;20300;-80
2022/01/22 08:24:54;;;;;;;2.60;2.00;;;0.60;99.90;;;;;;7384833;19;20324;-79
2022/01/22 08:27:34;;;;;;;2.22;1.83;;;0.60;99.90;;;;;;7390423;19;20312;-79
2022/01/22 08:30:00;;;;;;;5.53;1.88;;;0.70;99.90;;;;;;7384743;19;20392;-79
2022/01/22 08:37:43;;;;;;;1.90;1.80;;;0.80;99.90;;;;;;7285762;19;2006357;-80
2022/01/22 08:40:09;;;;;;;2.60;1.90;;;0.90;99.90;;;;;;7386178;19;20313;-79
2022/01/22 08:42:35;;;;;;;1.90;1.70;;;0.90;99.90;;;;;;7386249;19;20768;-79
2022/01/22 08:45:01;;;;;;;1.95;1.52;;;0.90;99.90;;;;;;7390034;19;20352;-79
2022/01/22 08:47:27;;;;;;;2.50;1.73;;;1.00;99.90;;;;;;7390091;19;20325;-81
2022/01/22 08:49:53;;;;;;;2.70;1.98;;;1.00;99.90;;;;;;7391228;19;20337;-79
2022/01/22 08:52:24;;;;;;;2.00;1.80;;;1.00;99.90;;;;;;7392223;19;20300;-80
2022/01/22 08:54:49;;;;;;;3.58;2.40;;;1.00;99.90;;;;;;7387113;19;20301;-80
2022/01/22 08:57:18;;;;;;;2.47;2.00;;;1.10;99.90;;;;;;7387111;19;20887;-79
2022/01/22 09:00:05;;;;;;;1.70;1.60;;;1.10;99.90;;;;;;7386270;19;20329;-82
2022/01/22 09:02:31;;;;;;;2.73;1.60;;;1.20;99.90;;;;;;7381847;19;20437;-79
2022/01/22 09:05:34;;;;;;;1.73;1.50;;;1.30;99.90;;;;;;7285165;19;2004416;-79
2022/01/22 09:08:15;;;;;;;2.03;1.83;;;1.20;99.90;;;;;;7283421;19;2004646;-79
2022/01/22 09:11:19;;;;;;;1.95;1.73;;;1.20;99.90;;;;;;7284708;19;2004465;-80
2022/01/22 09:13:56;;;;;;;1.88;1.52;;;1.30;99.90;;;;;;7384504;19;20332;-78
2022/01/22 09:16:27;;;;;;;2.85;2.10;;;1.50;99.90;;;;;;7389739;19;20317;-80
2022/01/22 09:18:54;;;;;;;2.10;1.63;;;1.40;99.90;;;;;;7368142;19;20385;-79
2022/01/22 09:21:23;;;;;;;1.60;1.50;;;1.60;99.90;;;;;;7387944;19;20363;-80
2022/01/22 09:23:49;;;;;;;2.38;2.00;;;1.40;99.90;;;;;;7392860;19;20350;-78
2022/01/22 09:26:18;;;;;;;2.63;2.30;;;1.50;99.90;;;;;;7388308;19;20353;-78
2022/01/22 09:28:46;;;;;;;3.35;2.15;;;1.50;99.90;;;;;;7381747;19;20864;-79
2022/01/22 09:31:12;;;;;;;1.77;1.67;;;1.60;99.90;;;;;;7384859;19;20417;-78
2022/01/22 09:33:39;;;;;;;1.90;1.80;;;1.70;99.90;;;;;;7388145;19;20810;-79
2022/01/22 09:36:19;;;;;;;2.00;1.80;;;1.70;99.90;;;;;;7403772;19;20309;-79
2022/01/22 09:39:13;;;;;;;1.60;1.50;;;1.70;99.90;;;;;;7292352;19;2004288;-78
2022/01/22 09:42:05;;;;;;;3.95;1.80;;;1.80;99.90;;;;;;7394465;19;20312;-79
2022/01/22 09:44:51;;;;;;;3.65;2.30;;;1.90;99.90;;;;;;7289753;19;2005404;-77
2022/01/22 09:47:45;;;;;;;3.45;2.25;;;1.90;99.90;;;;;;7290659;19;2004414;-78
2022/01/22 09:50:34;;;;;;;1.98;1.80;;;1.80;99.90;;;;;;7293037;19;2004440;-77
2022/01/22 09:53:19;;;;;;;1.95;1.73;;;1.80;99.90;;;;;;7297976;19;2006997;-79
2022/01/22 09:56:24;;;;;;;2.55;2.22;;;1.80;99.90;;;;;;7291955;19;2007550;-78
2022/01/22 09:59:03;;;;;;;4.47;3.20;;;1.70;99.90;;;;;;7288678;19;2004469;-78
2022/01/22 10:01:43;;;;;;;2.03;1.80;;;1.80;99.90;;;;;;7267915;19;2004426;-77
2022/01/22 10:04:17;;;;;;;3.97;2.60;;;1.90;99.90;;;;;;7390458;19;20325;-78
2022/01/22 10:06:53;;;;;;;1.77;1.67;;;1.90;99.90;;;;;;7290819;19;2006174;-77
2022/01/22 10:10:02;;;;;;;1.38;1.30;;;2.00;99.90;;;;;;7276059;19;2004296;-78
2022/01/22 10:12:47;;;;;;;1.60;1.50;;;2.10;99.90;;;;;;7289491;19;2004689;-78
2022/01/22 10:15:19;;;;;;;1.40;1.30;;;2.30;99.90;;;;;;7289969;19;2004614;-76
2022/01/22 10:17:51;;;;;;;1.60;1.30;;;2.40;99.90;;;;;;7391274;19;20316;-79
2022/01/22 10:20:29;;;;;;;1.90;1.70;;;2.40;99.90;;;;;;7388668;19;20344;-79
2022/01/22 10:23:20;;;;;;;1.77;1.65;;;2.60;99.90;;;;;;7392793;19;20352;-79
2022/01/22 10:25:57;;;;;;;1.80;1.60;;;2.50;99.90;;;;;;7294199;19;2008568;-77
2022/01/22 10:28:23;;;;;;;3.83;3.27;;;2.40;99.90;;;;;;7286544;19;2005119;-78
2022/01/22 10:30:52;;;;;;;2.42;2.10;;;2.40;99.90;;;;;;7391009;19;20380;-78
2022/01/22 10:36:17;;;;;;;2.30;1.67;;;2.40;99.90;;;;;;7390045;19;20960;-78
2022/01/22 10:39:21;;;;;;;3.03;2.00;;;2.30;99.90;;;;;;7286072;19;2005800;-78
2022/01/22 10:41:47;;;;;;;2.80;1.92;;;2.40;99.90;;;;;;7389642;19;20313;-77
2022/01/22 10:44:21;;;;;;;5.20;2.22;;;2.30;99.90;;;;;;7386298;19;20377;-79
2022/01/22 10:47:02;;;;;;;3.45;3.03;;;2.30;99.90;;;;;;7386415;19;20305;-78
2022/01/22 10:49:28;;;;;;;2.47;2.15;;;2.30;99.90;;;;;;7288717;19;2007704;-77
2022/01/22 10:52:02;;;;;;;4.07;1.50;;;2.30;99.90;;;;;;7389572;19;20590;-78
2022/01/22 10:54:30;;;;;;;1.50;1.40;;;2.20;99.90;;;;;;7395646;19;20323;-78
2022/01/22 10:57:10;;;;;;;1.63;1.52;;;2.30;99.90;;;;;;7391759;19;20395;-79
2022/01/22 10:59:36;;;;;;;1.75;1.35;;;2.50;99.90;;;;;;7391304;19;20844;-78
2022/01/22 11:02:03;;;;;;;2.95;1.60;;;2.60;99.90;;;;;;7389387;19;20361;-77
2022/01/22 11:04:38;;;;;;;1.70;1.60;;;2.70;99.90;;;;;;7388094;19;20465;-78
2022/01/22 11:07:05;;;;;;;2.45;1.50;;;2.90;99.90;;;;;;7389155;19;20337;-78
2022/01/22 11:09:31;;;;;;;2.13;1.33;;;3.20;99.90;;;;;;7388587;19;20312;-78
2022/01/22 11:11:58;;;;;;;1.77;1.48;;;3.20;99.90;;;;;;7392615;19;20325;-78
2022/01/22 11:14:23;;;;;;;1.35;1.23;;;3.20;99.90;;;;;;7392015;19;20333;-78
2022/01/22 11:16:50;;;;;;;1.48;1.38;;;3.20;99.90;;;;;;7390899;19;20698;-79
2022/01/22 11:19:20;;;;;;;1.50;1.40;;;3.10;99.90;;;;;;7387621;19;20311;-79
2022/01/22 11:21:48;;;;;;;2.05;1.65;;;3.20;99.90;;;;;;7387644;19;20309;-78
2022/01/22 11:24:17;;;;;;;1.55;1.33;;;3.10;99.90;;;;;;7387273;19;20348;-78
2022/01/22 11:27:02;;;;;;;1.25;1.17;;;3.40;99.90;;;;;;7388626;19;20324;-78
2022/01/22 11:29:48;;;;;;;1.40;1.30;;;3.40;99.90;;;;;;7388621;19;20332;-79
2022/01/22 11:32:13;;;;;;;1.98;1.83;;;3.30;99.90;;;;;;7389625;19;20419;-78
2022/01/22 11:34:40;;;;;;;1.75;1.60;;;3.20;99.90;;;;;;7384066;19;20348;-78
2022/01/22 11:37:24;;;;;;;2.33;1.30;;;3.30;99.90;;;;;;7389607;19;20320;-78
2022/01/22 11:40:09;;;;;;;1.83;1.25;;;3.20;99.90;;;;;;7284384;19;2007631;-80
2022/01/22 11:43:01;;;;;;;1.30;1.17;;;3.50;99.90;;;;;;7283899;19;2004417;-79
2022/01/22 11:45:53;;;;;;;1.00;1.00;;;3.70;99.90;;;;;;7388788;19;20349;-78
2022/01/22 11:48:28;;;;;;;4.07;1.40;;;3.80;99.90;;;;;;7283715;19;2006846;-78
2022/01/22 11:51:25;;;;;;;1.20;1.10;;;3.60;99.90;;;;;;7385735;19;20316;-78
2022/01/22 11:53:56;;;;;;;1.23;1.10;;;3.70;99.90;;;;;;7384379;19;20416;-78
2022/01/22 11:56:26;;;;;;;1.65;1.55;;;3.40;99.90;;;;;;7388611;19;20386;-79
2022/01/22 11:59:01;;;;;;;1.50;1.40;;;3.50;99.90;;;;;;7388063;19;20329;-79
2022/01/22 12:01:51;;;;;;;1.33;1.23;;;3.50;99.90;;;;;;7390189;19;20388;-79
2022/01/22 12:04:18;;;;;;;1.33;1.13;;;3.80;99.90;;;;;;7384828;19;20343;-78
2022/01/22 12:07:05;;;;;;;1.40;1.30;;;3.90;99.90;;;;;;7384544;19;20324;-78
2022/01/22 12:09:43;;;;;;;2.22;1.30;;;3.70;99.90;;;;;;7385026;19;20385;-77
2022/01/22 12:15:33;;;;;;;1.63;1.30;;;3.50;99.90;;;;;;7282165;19;2004412;-79
2022/01/22 12:18:04;;;;;;;2.03;1.08;;;3.60;99.90;;;;;;7386051;19;20333;-79
2022/01/22 12:23:06;;;;;;;1.00;1.00;;;3.70;99.90;;;;;;7386197;19;20341;-78
2022/01/22 12:25:31;;;;;;;2.83;2.30;;;4.20;99.90;;;;;;7382000;19;20340;-78
2022/01/22 12:27:57;;;;;;;1.15;1.13;;;4.70;99.90;;;;;;7384683;19;20353;-77
2022/01/22 12:30:51;;;;;;;1.27;1.17;;;4.60;99.90;;;;;;7382620;19;20878;-77
2022/01/22 12:33:29;;;;;;;3.55;1.25;;;4.60;99.90;;;;;;7280664;19;2004460;-76
2022/01/22 12:35:59;;;;;;;1.02;0.98;;;4.40;99.90;;;;;;7382757;19;20727;-78
2022/01/22 12:38:36;;;;;;;1.20;1.10;;;4.40;99.90;;;;;;7383265;19;20341;-76
2022/01/22 12:41:14;;;;;;;1.60;1.10;;;4.00;99.90;;;;;;7383816;19;20995;-78
2022/01/22 12:43:43;;;;;;;1.42;1.13;;;4.20;99.90;;;;;;7382152;19;20316;-76
2022/01/22 12:46:09;;;;;;;0.98;0.95;;;4.30;99.90;;;;;;7382863;19;20368;-77
2022/01/22 12:48:36;;;;;;;1.00;1.00;;;4.50;99.90;;;;;;7382620;19;20341;-78
2022/01/22 12:51:06;;;;;;;0.80;0.80;;;4.30;99.90;;;;;;7391060;19;20343;-77
2022/01/22 12:53:32;;;;;;;0.93;0.93;;;4.40;99.90;;;;;;7386719;19;20399;-77
2022/01/22 12:58:26;;;;;;;1.00;1.00;;;4.00;99.90;;;;;;7382976;19;20345;-79
2022/01/22 13:00:53;;;;;;;0.90;0.90;;;4.00;99.90;;;;;;7383883;19;20323;-78
2022/01/22 13:03:32;;;;;;;1.25;1.10;;;4.00;99.90;;;;;;7387804;19;20325;-78
2022/01/22 13:05:58;;;;;;;0.80;0.80;;;4.10;99.90;;;;;;7283980;19;2004526;-77
2022/01/22 13:08:28;;;;;;;1.30;1.20;;;4.20;99.90;;;;;;7381530;19;20360;-76
2022/01/22 13:11:08;;;;;;;1.00;0.90;;;4.20;99.90;;;;;;7279223;19;2005177;-78
2022/01/22 13:13:34;;;;;;;1.17;1.08;;;4.00;99.90;;;;;;7380122;19;20312;-77
2022/01/22 13:16:07;;;;;;;1.17;1.07;;;3.90;99.90;;;;;;7381307;19;20337;-77
2022/01/22 13:18:59;;;;;;;2.60;1.20;;;4.00;99.90;;;;;;7382221;19;20372;-76
2022/01/22 13:21:29;;;;;;;1.15;1.00;;;3.90;99.90;;;;;;7269107;19;2004463;-79
2022/01/22 13:24:00;;;;;;;1.55;1.20;;;3.80;99.90;;;;;;7380989;19;20396;-78
2022/01/22 13:26:47;;;;;;;3.53;1.53;;;3.80;99.90;;;;;;7385433;19;20714;-78
2022/01/22 13:29:43;;;;;;;1.23;1.13;;;4.00;99.90;;;;;;7277322;19;2005576;-78
2022/01/22 13:49:15;;;;;;;1.30;1.17;;;4.60;99.90;;;;;;7275724;19;2024394;-78
2022/01/22 13:51:41;;;;;;;1.75;0.90;;;4.30;99.90;;;;;;7277054;19;2005579;-78
2022/01/22 13:54:06;;;;;;;1.97;1.00;;;4.20;99.90;;;;;;7380322;19;20970;-78
2022/01/22 13:56:54;;;;;;;0.98;0.95;;;4.10;99.90;;;;;;7380285;19;20702;-77
2022/01/22 13:59:41;;;;;;;1.13;1.05;;;4.10;99.90;;;;;;7381349;19;20665;-78
2022/01/22 14:05:04;;;;;;;2.03;1.10;;;4.00;99.90;;;;;;7280356;19;2006133;-80
2022/01/22 14:07:41;;;;;;;1.95;1.05;;;3.80;99.90;;;;;;7386901;19;20411;-78
2022/01/22 14:10:14;;;;;;;1.27;1.17;;;3.80;99.90;;;;;;7382050;19;20325;-77
2022/01/22 14:15:12;;;;;;;1.90;1.20;;;3.70;99.90;;;;;;7383945;19;20324;-81
2022/01/22 14:18:13;;;;;;;0.90;0.90;;;3.80;99.90;;;;;;7384895;19;20325;-83
2022/01/22 14:20:55;;;;;;;1.02;0.93;;;3.80;99.90;;;;;;7283002;19;2004397;-78
2022/01/22 14:23:24;;;;;;;0.80;0.80;;;3.70;99.90;;;;;;7386419;19;20368;-78
2022/01/22 14:25:54;;;;;;;2.72;1.30;;;3.70;99.90;;;;;;7387802;19;21061;-78
2022/01/22 14:28:20;;;;;;;1.80;1.00;;;3.80;99.90;;;;;;7395529;19;20356;-79
2022/01/22 14:30:47;;;;;;;2.38;1.05;;;3.80;99.90;;;;;;7390501;19;20956;-79
2022/01/22 14:33:18;;;;;;;1.05;1.05;;;3.60;99.90;;;;;;7387725;19;20347;-78
2022/01/22 14:35:56;;;;;;;4.03;3.35;;;3.60;99.90;;;;;;7388678;19;20403;-80
2022/01/22 14:38:34;;;;;;;8.68;5.57;;;3.70;99.90;;;;;;7389385;19;20329;-79
2022/01/22 14:46:52;;;;;;;17.02;11.02;;;3.70;99.90;;;;;;7286087;19;2006463;-78
2022/01/22 14:49:40;;;;;;;13.80;10.32;;;3.70;99.90;;;;;;7283821;19;2008148;-78
2022/01/22 14:52:07;;;;;;;10.70;8.20;;;3.70;99.90;;;;;;7285409;19;2004574;-79
2022/01/22 14:54:38;;;;;;;12.07;6.72;;;3.70;99.90;;;;;;7387043;19;20308;-79
2022/01/22 14:57:05;;;;;;;9.35;7.63;;;3.60;99.90;;;;;;7386176;19;20325;-77
2022/01/22 14:59:32;;;;;;;3.05;2.80;;;3.40;99.90;;;;;;7385684;19;20323;-78
2022/01/22 15:01:59;;;;;;;4.93;3.92;;;3.40;99.90;;;;;;7389512;19;20384;-79
2022/01/22 15:04:25;;;;;;;6.47;4.97;;;3.20;99.90;;;;;;7386774;19;20328;-78
2022/01/22 15:06:51;;;;;;;5.80;4.63;;;3.10;99.90;;;;;;7373051;19;20888;-78
2022/01/22 15:09:16;;;;;;;5.10;3.85;;;3.20;99.90;;;;;;7391106;19;20301;-77
2022/01/22 15:11:42;;;;;;;3.73;3.23;;;3.20;99.90;;;;;;7386339;19;20316;-77
2022/01/22 15:14:08;;;;;;;6.95;4.05;;;3.30;99.90;;;;;;7382457;19;20874;-80
2022/01/22 15:16:52;;;;;;;7.20;3.58;;;3.40;99.90;;;;;;7387611;19;20919;-76
2022/01/22 15:19:21;;;;;;;5.28;3.65;;;3.30;99.90;;;;;;7285082;19;2004399;-76
2022/01/22 15:21:49;;;;;;;3.15;2.95;;;3.40;99.90;;;;;;7387146;19;20316;-78
2022/01/22 15:24:14;;;;;;;5.03;4.13;;;3.40;99.90;;;;;;7381134;19;20356;-76
2022/01/22 15:26:40;;;;;;;4.05;3.63;;;3.40;99.90;;;;;;7385952;19;20305;-77
2022/01/22 15:29:07;;;;;;;4.60;3.45;;;3.30;99.90;;;;;;7383298;19;20347;-76
2022/01/22 15:31:36;;;;;;;3.40;3.10;;;3.40;99.90;;;;;;7384214;19;20355;-76
2022/01/22 15:34:57;;;;;;;4.57;3.30;;;3.40;99.90;;;;;;7381795;19;20337;-77
2022/01/22 15:36:51;;;;;;;4.57;3.03;;;3.30;99.90;;;;;;7382668;19;20321;-77